createdAt,value
2019-02-24T00:02:22.785Z,99.90
2019-02-24T00:04:52.669Z,99.90
2019-02-24T00:07:22.592Z,99.90
2019-02-24T00:09:53.709Z,99.90
2019-02-24T00:12:23.667Z,99.90
2019-02-24T00:14:53.552Z,99.90
2019-02-24T00:17:23.601Z,99.90
2019-02-24T00:19:53.567Z,99.90
2019-02-24T00:22:23.636Z,99.90
2019-02-24T00:24:53.517Z,99.90
2019-02-24T00:27:23.413Z,99.90
2019-02-24T00:29:53.384Z,99.90
2019-02-24T00:32:23.301Z,99.90
2019-02-24T00:34:53.282Z,99.90
2019-02-24T00:37:23.162Z,99.90
2019-02-24T00:39:54.568Z,99.90
2019-02-24T00:42:24.519Z,99.90
2019-02-24T00:44:54.362Z,99.90
2019-02-24T00:47:24.220Z,99.90
2019-02-24T00:49:54.198Z,99.90
2019-02-24T00:52:24.072Z,99.90
2019-02-24T00:54:53.918Z,99.90
2019-02-24T00:57:23.828Z,99.90
2019-02-24T00:59:53.714Z,99.90
2019-02-24T01:02:23.653Z,99.90
2019-02-24T01:04:53.630Z,99.90
2019-02-24T01:07:25.074Z,99.90
2019-02-24T01:09:54.984Z,99.90
2019-02-24T01:12:24.846Z,99.90
2019-02-24T01:14:54.793Z,99.90
2019-02-24T01:17:25.904Z,99.90
2019-02-24T01:19:55.832Z,99.90
2019-02-24T01:22:25.675Z,99.90
2019-02-24T01:24:55.587Z,99.90
2019-02-24T01:27:25.553Z,99.90
2019-02-24T01:29:55.984Z,99.90
2019-02-24T01:32:26.417Z,99.90
2019-02-24T01:34:57.436Z,99.90
2019-02-24T01:37:27.385Z,99.90
2019-02-24T01:39:57.224Z,99.90
2019-02-24T01:42:28.432Z,99.90
2019-02-24T01:44:58.322Z,99.90
2019-02-24T01:47:28.146Z,99.90
2019-02-24T01:49:58.148Z,99.90
2019-02-24T01:52:28.066Z,99.90
2019-02-24T01:54:59.673Z,99.90
2019-02-24T01:57:29.572Z,99.90
2019-02-24T01:59:59.716Z,99.90
2019-02-24T02:02:29.751Z,99.90
2019-02-24T02:05:00.824Z,99.90
2019-02-24T02:07:31.786Z,99.90
2019-02-24T02:10:01.613Z,99.90
2019-02-24T02:12:31.610Z,99.90
2019-02-24T02:15:01.634Z,99.90
2019-02-24T02:17:33.269Z,99.90
2019-02-24T02:20:04.237Z,99.90
2019-02-24T02:22:34.504Z,99.90
2019-02-24T02:25:09.833Z,99.90
2019-02-24T02:27:40.354Z,99.90
2019-02-24T02:30:11.779Z,99.90
2019-02-24T02:32:42.361Z,99.90
2019-02-24T02:35:13.349Z,99.90
2019-02-24T02:37:43.275Z,99.90
2019-02-24T02:40:13.393Z,99.90
2019-02-24T02:42:43.348Z,99.90
2019-02-24T02:45:13.342Z,99.90
2019-02-24T02:47:43.392Z,99.90
2019-02-24T02:50:13.384Z,99.90
2019-02-24T02:52:44.357Z,99.90
2019-02-24T02:55:14.657Z,99.90
2019-02-24T02:57:45.699Z,99.90
2019-02-24T03:00:32.866Z,99.90
2019-02-24T03:03:04.231Z,99.90
2019-02-24T03:05:34.523Z,99.90
2019-02-24T03:08:06.185Z,99.90
2019-02-24T03:10:37.706Z,99.90
2019-02-24T03:13:07.800Z,99.90
2019-02-24T03:15:40.320Z,99.90
2019-02-24T03:18:10.590Z,99.90
2019-02-24T03:20:40.592Z,99.90
2019-02-24T03:23:10.504Z,99.90
2019-02-24T03:25:40.503Z,99.90
2019-02-24T03:28:10.474Z,99.90
2019-02-24T03:30:42.861Z,99.90
2019-02-24T03:33:12.873Z,99.90
2019-02-24T03:35:42.704Z,99.90
2019-02-24T03:38:12.587Z,99.90
2019-02-24T03:40:42.586Z,99.90
2019-02-24T03:43:15.266Z,99.90
2019-02-24T03:45:46.938Z,99.90
2019-02-24T03:48:20.234Z,99.90
2019-02-24T03:50:51.753Z,99.90
2019-02-24T03:53:22.397Z,99.90
2019-02-24T03:55:52.947Z,99.90
2019-02-24T03:58:22.949Z,99.90
2019-02-24T04:00:53.587Z,99.90
2019-02-24T04:03:23.516Z,99.90
2019-02-24T04:05:54.944Z,99.90
2019-02-24T04:08:25.171Z,99.90
2019-02-24T04:10:55.273Z,99.90
2019-02-24T04:13:26.034Z,99.90
2019-02-24T04:15:56.336Z,99.90
2019-02-24T04:18:26.188Z,99.90
2019-02-24T04:20:56.186Z,99.90
2019-02-24T04:23:26.042Z,99.90
2019-02-24T04:25:55.985Z,99.90
2019-02-24T04:28:25.898Z,99.90
2019-02-24T04:30:55.785Z,99.90
2019-02-24T04:33:26.667Z,99.90
2019-02-24T04:35:56.873Z,99.90
2019-02-24T04:38:26.829Z,99.90
2019-02-24T04:40:56.992Z,99.90
2019-02-24T04:43:27.236Z,99.90
2019-02-24T04:45:58.752Z,99.90
2019-02-24T04:48:28.905Z,99.90
2019-02-24T04:50:59.193Z,99.90
2019-02-24T04:53:29.558Z,99.90
2019-02-24T04:55:59.444Z,99.90
2019-02-24T04:58:29.407Z,99.90
2019-02-24T05:00:59.562Z,99.90
2019-02-24T05:03:29.603Z,99.90
2019-02-24T05:06:01.138Z,99.90
2019-02-24T05:08:31.431Z,99.90
2019-02-24T05:11:01.302Z,99.90
2019-02-24T05:13:31.489Z,99.90
2019-02-24T05:16:01.340Z,99.90
2019-02-24T05:18:31.282Z,99.90
2019-02-24T05:21:01.186Z,99.90
2019-02-24T05:23:31.141Z,99.90
2019-02-24T05:26:00.985Z,99.90
2019-02-24T05:28:31.920Z,99.90
2019-02-24T05:31:01.861Z,99.90
2019-02-24T05:33:31.874Z,99.90
2019-02-24T05:36:01.812Z,99.90
2019-02-24T05:38:32.900Z,99.90
2019-02-24T05:41:02.788Z,99.90
2019-02-24T05:43:33.054Z,99.90
2019-02-24T05:46:03.062Z,99.90
2019-02-24T05:48:33.757Z,99.90
2019-02-24T05:51:03.716Z,99.90
2019-02-24T05:53:33.812Z,99.90
2019-02-24T05:56:04.057Z,99.90
2019-02-24T05:58:34.125Z,99.90
2019-02-24T06:01:04.340Z,99.90
2019-02-24T06:03:34.298Z,99.90
2019-02-24T06:06:04.181Z,99.90
2019-02-24T06:08:34.154Z,99.90
2019-02-24T06:11:04.102Z,99.90
2019-02-24T06:13:34.128Z,99.90
2019-02-24T06:16:04.254Z,99.90
2019-02-24T06:18:34.160Z,99.90
2019-02-24T06:21:04.106Z,99.90
2019-02-24T06:23:34.095Z,99.90
2019-02-24T06:26:04.387Z,99.90
2019-02-24T06:28:34.340Z,99.90
2019-02-24T06:31:04.339Z,99.90
2019-02-24T06:33:34.260Z,99.90
2019-02-24T06:36:04.343Z,99.90
2019-02-24T06:38:34.333Z,99.90
2019-02-24T06:41:04.289Z,99.90
2019-02-24T06:43:34.493Z,99.90
2019-02-24T06:46:04.618Z,99.90
2019-02-24T06:48:36.886Z,99.90
2019-02-24T06:51:08.384Z,99.90
2019-02-24T06:53:38.751Z,99.90
2019-02-24T06:56:08.732Z,99.90
2019-02-24T06:58:38.579Z,99.90
2019-02-24T07:01:08.613Z,99.90
2019-02-24T07:03:38.621Z,99.90
2019-02-24T07:06:09.633Z,99.90
2019-02-24T07:08:39.909Z,99.90
2019-02-24T07:11:09.863Z,99.90
2019-02-24T07:13:40.257Z,99.90
2019-02-24T07:16:10.143Z,99.90
2019-02-24T07:18:40.026Z,99.90
2019-02-24T07:21:10.428Z,99.90
2019-02-24T07:23:40.351Z,99.90
2019-02-24T07:26:10.253Z,99.90
2019-02-24T07:28:41.327Z,99.90
2019-02-24T07:31:11.233Z,99.90
2019-02-24T07:33:41.170Z,99.90
2019-02-24T07:36:11.137Z,99.90
2019-02-24T07:38:40.993Z,99.90
2019-02-24T07:41:10.898Z,99.90
2019-02-24T07:43:40.812Z,99.90
2019-02-24T07:46:10.967Z,99.90
2019-02-24T07:48:40.934Z,99.90
2019-02-24T07:51:12.371Z,99.90
2019-02-24T07:53:42.503Z,99.90
2019-02-24T07:56:12.422Z,99.90
2019-02-24T07:58:42.271Z,99.90
2019-02-24T08:01:12.175Z,99.90
2019-02-24T08:03:42.157Z,99.90
2019-02-24T08:06:13.586Z,99.90
2019-02-24T08:08:43.782Z,99.90
2019-02-24T08:11:13.695Z,99.90
2019-02-24T08:13:44.093Z,99.90
2019-02-24T08:16:14.189Z,99.90
2019-02-24T08:18:49.483Z,99.90
2019-02-24T08:21:15.733Z,99.90
2019-02-24T08:23:47.229Z,99.90
2019-02-24T08:26:17.223Z,99.90
2019-02-24T08:28:47.110Z,99.90
2019-02-24T08:31:19.406Z,99.90
2019-02-24T08:33:49.352Z,99.90
2019-02-24T08:36:19.774Z,99.90
2019-02-24T08:38:49.626Z,99.90
2019-02-24T08:41:19.581Z,99.90
2019-02-24T08:43:52.787Z,99.90
2019-02-24T08:46:22.865Z,99.90
2019-02-24T08:48:54.174Z,99.90
2019-02-24T08:51:25.387Z,99.90
2019-02-24T08:53:55.353Z,99.90
2019-02-24T08:56:25.846Z,99.90
2019-02-24T08:58:55.922Z,99.90
2019-02-24T09:01:26.229Z,99.90
2019-02-24T09:03:56.227Z,99.90
2019-02-24T09:06:26.253Z,99.90
2019-02-24T09:08:56.157Z,99.90
2019-02-24T09:11:26.097Z,99.90
2019-02-24T09:13:55.984Z,99.90
2019-02-24T09:16:25.980Z,99.90
2019-02-24T09:18:55.937Z,99.90
2019-02-24T09:21:26.559Z,99.90
2019-02-24T09:23:58.654Z,99.90
2019-02-24T09:26:28.627Z,99.60
2019-02-24T09:28:58.517Z,99.70
2019-02-24T09:31:28.583Z,99.20
2019-02-24T09:33:58.855Z,99.20
2019-02-24T09:36:29.292Z,98.80
2019-02-24T09:38:59.636Z,99.10
2019-02-24T09:41:29.574Z,99.20
2019-02-24T09:43:59.503Z,99.10
2019-02-24T09:46:29.627Z,99.60
2019-02-24T09:49:01.197Z,99.50
2019-02-24T09:51:31.173Z,99.20
2019-02-24T09:54:01.710Z,98.70
2019-02-24T09:56:31.855Z,98.80
2019-02-24T09:59:01.891Z,98.80
2019-02-24T10:01:32.920Z,98.90
2019-02-24T10:04:03.371Z,98.70
2019-02-24T10:06:33.657Z,98.30
2019-02-24T10:09:04.752Z,98.40
2019-02-24T10:11:36.255Z,98.50
2019-02-24T10:14:06.253Z,97.90
2019-02-24T10:16:42.566Z,97.40
2019-02-24T10:19:11.894Z,97.50
2019-02-24T10:21:41.899Z,97.00
2019-02-24T10:24:11.803Z,96.50
2019-02-24T10:26:43.323Z,97.30
2019-02-24T10:29:13.335Z,95.70
2019-02-24T10:31:43.915Z,96.30
2019-02-24T10:34:14.549Z,96.10
2019-02-24T10:36:44.903Z,96.10
2019-02-24T10:39:14.928Z,95.60
2019-02-24T10:41:46.509Z,96.10
2019-02-24T10:44:17.042Z,95.40
2019-02-24T10:46:47.215Z,95.20
2019-02-24T10:49:21.652Z,95.30
2019-02-24T10:51:51.908Z,94.20
2019-02-24T10:54:22.548Z,95.30
2019-02-24T10:56:53.042Z,96.30
2019-02-24T10:59:23.325Z,95.80
2019-02-24T11:01:55.106Z,95.60
2019-02-24T11:04:25.482Z,96.10
2019-02-24T11:06:55.621Z,95.50
2019-02-24T11:09:25.809Z,95.90
2019-02-24T11:11:55.662Z,95.20
2019-02-24T11:14:25.803Z,94.70
2019-02-24T11:16:56.043Z,94.50
2019-02-24T11:19:27.363Z,94.40
2019-02-24T11:21:57.556Z,94.70
2019-02-24T11:24:27.522Z,93.90
2019-02-24T11:26:57.770Z,94.50
2019-02-24T11:29:28.626Z,93.10
2019-02-24T11:32:00.483Z,99.90
2019-02-24T11:34:30.542Z,91.10
2019-02-24T11:37:00.544Z,81.20
2019-02-24T11:39:30.769Z,83.40
2019-02-24T11:42:04.603Z,88.30
2019-02-24T11:44:34.619Z,88.90
2019-02-24T11:47:04.922Z,91.20
2019-02-24T11:49:36.617Z,91.50
2019-02-24T11:52:07.603Z,91.90
2019-02-24T11:54:37.628Z,91.50
2019-02-24T11:57:08.707Z,92.40
2019-02-24T11:59:38.845Z,93.10
2019-02-24T12:02:10.702Z,92.30
2019-02-24T12:04:40.655Z,92.10
2019-02-24T12:07:12.587Z,91.30
2019-02-24T12:09:44.293Z,92.20
2019-02-24T12:12:22.582Z,92.60
2019-02-24T12:14:55.578Z,91.70
2019-02-24T12:17:25.767Z,89.30
2019-02-24T12:19:56.059Z,90.20
2019-02-24T12:22:28.079Z,90.30
2019-02-24T12:24:58.443Z,89.80
2019-02-24T12:30:21.270Z,89.50
2019-02-24T12:32:51.457Z,86.90
2019-02-24T12:35:22.881Z,84.90
2019-02-24T12:37:53.725Z,80.70
2019-02-24T12:40:26.255Z,67.80
2019-02-24T12:43:00.915Z,65.30
2019-02-24T12:45:34.215Z,62.90
2019-02-24T12:48:04.347Z,57.40
2019-02-24T12:50:34.723Z,57.30
2019-02-24T12:53:20.470Z,54.70
2019-02-24T12:55:50.949Z,54.20
2019-02-24T12:58:25.425Z,52.90
2019-02-24T13:01:00.174Z,52.10
2019-02-24T13:03:30.523Z,55.30
2019-02-24T13:06:00.975Z,58.50
2019-02-24T13:08:42.092Z,59.80
2019-02-24T13:11:16.282Z,59.80
2019-02-24T13:13:51.403Z,59.80
2019-02-24T13:16:21.228Z,63.00
2019-02-24T13:18:51.416Z,67.00
2019-02-24T13:21:23.063Z,70.60
2019-02-24T13:23:53.160Z,74.90
2019-02-24T13:26:23.873Z,76.20
2019-02-24T13:28:54.029Z,76.80
2019-02-24T13:31:25.811Z,76.40
2019-02-24T13:33:56.003Z,78.70
2019-02-24T13:36:27.631Z,75.30
2019-02-24T13:38:59.510Z,69.10
2019-02-24T13:41:32.055Z,67.90
2019-02-24T13:44:04.611Z,71.20
2019-02-24T13:46:35.788Z,72.60
2019-02-24T13:49:05.855Z,74.30
2019-02-24T13:51:37.492Z,73.90
2019-02-24T13:54:08.574Z,79.20
2019-02-24T13:56:40.131Z,72.60
2019-02-24T13:59:13.923Z,73.90
2019-02-24T14:01:47.585Z,75.50
2019-02-24T14:04:20.143Z,81.50
2019-02-24T14:06:51.097Z,83.10
2019-02-24T14:09:22.510Z,85.90
2019-02-24T14:11:56.020Z,87.80
2019-02-24T14:14:38.347Z,91.00
2019-02-24T14:17:13.657Z,91.10
2019-02-24T14:19:48.568Z,91.70
2019-02-24T14:22:23.383Z,92.00
2019-02-24T14:25:04.515Z,92.10
2019-02-24T14:27:41.094Z,92.30
2019-02-24T14:30:18.896Z,92.40
2019-02-24T14:32:56.427Z,91.70
2019-02-24T14:35:29.246Z,92.30
2019-02-24T14:38:09.157Z,92.60
2019-02-24T14:40:42.651Z,92.90
2019-02-24T14:43:14.217Z,94.20
2019-02-24T14:45:51.025Z,94.20
2019-02-24T14:48:21.895Z,93.60
2019-02-24T14:51:05.073Z,93.80
2019-02-24T14:53:40.709Z,94.60
2019-02-24T14:56:16.693Z,94.10
2019-02-24T14:58:54.953Z,93.90
2019-02-24T15:01:33.338Z,94.60
2019-02-24T15:04:12.345Z,94.20
2019-02-24T15:06:43.534Z,94.50
2019-02-24T15:09:28.742Z,94.40
2019-02-24T15:12:14.106Z,94.80
2019-02-24T15:14:44.435Z,94.60
2019-02-24T15:17:15.278Z,94.80
2019-02-24T15:19:51.389Z,94.60
2019-02-24T15:22:22.550Z,94.40
2019-02-24T15:24:53.280Z,94.80
2019-02-24T15:27:27.505Z,94.60
2019-02-24T15:30:01.051Z,95.20
2019-02-24T15:32:33.115Z,95.30
2019-02-24T15:35:07.299Z,95.50
2019-02-24T15:37:48.689Z,95.30
2019-02-24T15:40:21.941Z,95.90
2019-02-24T15:42:52.020Z,95.70
2019-02-24T15:45:22.330Z,95.60
2019-02-24T15:47:52.869Z,96.10
2019-02-24T15:50:23.221Z,96.20
2019-02-24T15:52:53.379Z,96.00
2019-02-24T15:55:25.609Z,96.10
2019-02-24T15:57:55.801Z,96.10
2019-02-24T16:00:26.164Z,96.10
2019-02-24T16:03:01.585Z,96.50
2019-02-24T16:05:28.987Z,96.70
2019-02-24T16:07:59.455Z,96.90
2019-02-24T16:10:29.516Z,96.70
2019-02-24T16:13:03.116Z,96.80
2019-02-24T16:15:36.213Z,96.90
2019-02-24T16:18:06.907Z,97.20
2019-02-24T16:20:38.938Z,96.90
2019-02-24T16:23:16.111Z,97.20
2019-02-24T16:25:47.897Z,97.20
2019-02-24T16:28:17.973Z,97.40
2019-02-24T16:30:48.194Z,97.30
2019-02-24T16:33:29.879Z,97.30
2019-02-24T16:36:00.991Z,97.60
2019-02-24T16:38:33.048Z,97.90
2019-02-24T16:41:05.917Z,97.60
2019-02-24T16:43:36.238Z,97.70
2019-02-24T16:46:07.085Z,97.90
2019-02-24T16:48:37.395Z,98.10
2019-02-24T16:51:07.763Z,97.90
2019-02-24T16:53:40.218Z,97.90
2019-02-24T16:56:11.874Z,98.40
2019-02-24T16:58:42.533Z,98.60
2019-02-24T17:01:14.086Z,99.10
2019-02-24T17:03:46.177Z,99.50
2019-02-24T17:06:19.028Z,99.60
2019-02-24T17:08:52.007Z,99.90
2019-02-24T17:11:24.712Z,99.90
2019-02-24T17:13:57.895Z,99.90
2019-02-24T17:16:28.114Z,99.90
2019-02-24T17:18:58.218Z,99.90
2019-02-24T17:21:28.357Z,99.90
2019-02-24T17:23:58.662Z,99.90
2019-02-24T17:26:28.791Z,99.90
2019-02-24T17:28:58.957Z,99.90
2019-02-24T17:31:29.258Z,99.90
2019-02-24T17:33:59.295Z,99.90
2019-02-24T17:36:29.749Z,99.90
2019-02-24T17:39:00.037Z,99.90
2019-02-24T17:41:30.525Z,99.80
2019-02-24T17:44:02.157Z,99.90
2019-02-24T17:46:33.599Z,99.70
2019-02-24T17:49:03.802Z,99.90
2019-02-24T17:51:37.793Z,99.00
2019-02-24T17:54:09.192Z,99.00
2019-02-24T17:56:40.195Z,98.60
2019-02-24T17:59:13.754Z,98.60
2019-02-24T18:01:44.105Z,98.40
2019-02-24T18:04:14.023Z,98.40
2019-02-24T18:06:45.509Z,98.70
2019-02-24T18:09:17.040Z,98.60
2019-02-24T18:11:47.503Z,98.60
2019-02-24T18:14:18.139Z,99.00
2019-02-24T18:16:48.597Z,98.80
2019-02-24T18:19:19.058Z,98.90
2019-02-24T18:21:49.548Z,98.90
2019-02-24T18:24:19.909Z,98.40
2019-02-24T18:26:50.672Z,98.80
2019-02-24T18:29:22.481Z,98.50
2019-02-24T18:31:54.471Z,98.60
2019-02-24T18:34:26.572Z,98.30
2019-02-24T18:37:00.079Z,98.20
2019-02-24T18:39:32.249Z,98.10
2019-02-24T18:42:06.787Z,98.30
2019-02-24T18:44:37.559Z,98.40
2019-02-24T18:47:07.887Z,98.60
2019-02-24T18:49:39.717Z,98.40
2019-02-24T18:52:10.557Z,97.90
2019-02-24T18:54:41.194Z,97.50
2019-02-24T18:57:15.951Z,97.30
2019-02-24T18:59:46.963Z,96.80
2019-02-24T19:02:17.358Z,96.90
2019-02-24T19:04:49.325Z,97.10
2019-02-24T19:07:19.892Z,97.20
2019-02-24T19:09:50.556Z,97.10
2019-02-24T19:12:20.843Z,97.30
2019-02-24T19:14:51.071Z,97.20
2019-02-24T19:17:22.447Z,97.20
2019-02-24T19:19:54.349Z,97.00
2019-02-24T19:22:24.561Z,97.20
2019-02-24T19:24:58.056Z,97.10
2019-02-24T19:27:28.445Z,96.90
2019-02-24T19:29:58.970Z,97.10
2019-02-24T19:32:32.319Z,96.80
2019-02-24T19:35:02.905Z,96.70
2019-02-24T19:37:33.253Z,96.40
2019-02-24T19:40:07.947Z,96.90
2019-02-24T19:42:39.618Z,96.80
2019-02-24T19:45:12.963Z,96.60
2019-02-24T19:47:43.317Z,96.40
2019-02-24T19:50:19.865Z,95.90
2019-02-24T19:52:50.105Z,96.10
2019-02-24T19:55:20.294Z,95.80
2019-02-24T19:57:53.670Z,95.70
2019-02-24T20:00:26.005Z,95.70
2019-02-24T20:02:56.643Z,96.00
2019-02-24T20:05:27.074Z,96.10
2019-02-24T20:07:57.218Z,96.30
2019-02-24T20:10:29.240Z,96.30
2019-02-24T20:12:59.792Z,96.50
2019-02-24T20:15:30.238Z,96.80
2019-02-24T20:18:00.883Z,96.90
2019-02-24T20:20:32.743Z,97.20
2019-02-24T20:23:03.380Z,97.60
2019-02-24T20:25:33.769Z,97.70
2019-02-24T20:28:06.283Z,97.90
2019-02-24T20:30:37.869Z,97.80
2019-02-24T20:33:08.315Z,97.40
2019-02-24T20:35:38.855Z,97.50
2019-02-24T20:38:11.961Z,97.60
2019-02-24T20:40:45.357Z,97.90
2019-02-24T20:43:19.539Z,97.80
2019-02-24T20:45:49.947Z,97.80
2019-02-24T20:48:23.043Z,97.80
2019-02-24T20:50:54.786Z,98.30
2019-02-24T20:53:32.244Z,98.10
2019-02-24T20:56:05.503Z,98.30
2019-02-24T20:58:38.903Z,97.50
2019-02-24T21:01:16.293Z,97.90
2019-02-24T21:03:53.815Z,97.60
2019-02-24T21:06:24.464Z,97.00
2019-02-24T21:08:57.118Z,97.30
2019-02-24T21:11:34.571Z,96.70
2019-02-24T21:14:08.347Z,96.60
2019-02-24T21:16:46.662Z,96.40
2019-02-24T21:19:22.627Z,96.60
2019-02-24T21:21:54.803Z,96.20
2019-02-24T21:24:25.747Z,95.50
2019-02-24T21:26:56.001Z,94.70
2019-02-24T21:29:47.643Z,93.80
2019-02-24T21:32:22.187Z,93.60
2019-02-24T21:35:46.565Z,93.10
2019-02-24T21:38:08.553Z,94.10
2019-02-24T21:40:40.568Z,94.50
2019-02-24T21:43:24.865Z,94.90
2019-02-24T21:45:57.349Z,95.50
2019-02-24T21:48:29.097Z,96.30
2019-02-24T21:51:00.897Z,96.50
2019-02-24T21:53:31.107Z,95.90
2019-02-24T21:56:01.182Z,96.40
2019-02-24T21:58:31.992Z,96.90
2019-02-24T22:01:06.025Z,96.90
2019-02-24T22:03:54.527Z,96.90
2019-02-24T22:06:30.127Z,97.10
2019-02-24T22:09:21.450Z,97.80
2019-02-24T22:14:50.160Z,97.70
2019-02-24T22:17:24.300Z,96.90
2019-02-24T22:19:58.196Z,96.90
2019-02-24T22:22:38.479Z,96.30
2019-02-24T22:25:21.497Z,96.40
2019-02-24T22:27:49.819Z,96.40
2019-02-24T22:30:24.298Z,95.70
2019-02-24T22:32:57.605Z,95.40
2019-02-24T22:35:39.427Z,95.50
2019-02-24T22:41:22.011Z,95.60
2019-02-24T22:44:00.270Z,94.90
2019-02-24T22:46:50.652Z,94.40
2019-02-24T22:52:22.084Z,94.20
2019-02-24T22:55:02.092Z,94.30
2019-02-24T23:00:54.841Z,94.50
2019-02-24T23:03:35.219Z,93.70
2019-02-24T23:06:06.787Z,93.20
2019-02-24T23:08:40.233Z,93.40
2019-02-24T23:11:10.258Z,92.70
2019-02-24T23:13:40.374Z,92.50
2019-02-24T23:16:10.543Z,91.70
2019-02-24T23:18:41.660Z,91.50
2019-02-24T23:21:11.633Z,90.70
2019-02-24T23:23:41.691Z,91.20
2019-02-24T23:26:14.368Z,91.30
2019-02-24T23:28:44.483Z,91.60
2019-02-24T23:31:14.336Z,91.70
2019-02-24T23:33:45.362Z,91.70
2019-02-24T23:36:15.364Z,92.30
2019-02-24T23:38:45.602Z,92.30
2019-02-24T23:41:16.171Z,91.90
2019-02-24T23:43:46.105Z,92.50
2019-02-24T23:46:16.050Z,92.80
2019-02-24T23:48:46.046Z,92.40
2019-02-24T23:51:16.011Z,92.40
2019-02-24T23:53:45.969Z,91.90
2019-02-24T23:56:15.936Z,91.80
2019-02-24T23:58:45.982Z,92.30
